82C

Mauston-New Lisbon Union Airport

New Lisbon, Wisconsin, USA
METAR K82C 192135Z AUTO 33006KT 7SM OVC024 M02/M07 A3005 RMK AO2 T10201069
Observed Flight Rules
Nov-19 @ 21:35 UTC (30 minutes ago) Marginal Visual Flight Rules
Wind Visibility Clouds
330° at 6 knots 7 miles
  • Overcast at 2,400' AGL
Temperatures Readings
Current -2°C / 28°F
Dewpoint -7°C / 19°F
Humidity 69%
Altimeter 30.05" Hg
Pressure 1018 hPa
Elevation 276
METAR K82C 192135Z AUTO 33006KT 7SM OVC024 M02/M07 A3005 RMK AO2 T10201069
Observed Flight Rules
Nov-19 @ 21:35 UTC
(30 minutes ago)
MVFR
Wind Visibility
330° at 6 knots 7 miles
Clouds
  • Overcast at 2,400' AGL
Temperature Dewpoint
-2°C / 28°F -7°C / 19°F
Humidity Altimeter Pressure
69% 30.05" Hg 1018 hPa